Time;durP1;ratioP1;P1;durP2;ratioP2;P2;SDS_P1;SDS_P2;PMS_P1;PMS_P2;Temp;Humidity;BMP_temperature;BMP_pressure;BME280_temperature;BME280_humidity;BME280_pressure;Samples;Min_cycle;Max_cycle;Signal;HPM_P1;HPM_P2
2021/12/08 00:00:12;;;;;;;2.13;1.25;;;8.90;96.90;;;;;;5021053;28;20024;-89
2021/12/08 00:02:38;;;;;;;1.13;1.00;;;8.90;96.70;;;;;;5011474;28;20358;-88
2021/12/08 00:05:05;;;;;;;1.92;1.25;;;8.90;96.80;;;;;;5008642;28;20238;-89
2021/12/08 00:07:32;;;;;;;2.10;1.20;;;8.90;96.80;;;;;;5006487;28;20447;-89
2021/12/08 00:10:03;;;;;;;1.33;0.90;;;8.90;96.80;;;;;;5023624;28;20115;-88
2021/12/08 00:15:13;;;;;;;;;;;8.90;96.80;;;;;;5036064;28;20829;-88
2021/12/08 00:17:40;;;;;;;3.80;1.35;;;8.90;96.10;;;;;;5024879;28;20140;-88
2021/12/08 00:20:07;;;;;;;3.65;1.30;;;8.90;97.00;;;;;;5014580;28;22115;-89
2021/12/08 00:22:33;;;;;;;1.73;0.82;;;8.90;97.10;;;;;;5015608;28;20017;-88
2021/12/08 00:24:59;;;;;;;2.45;0.80;;;8.90;97.20;;;;;;5012742;28;20214;-90
2021/12/08 00:27:24;;;;;;;1.08;0.98;;;8.90;97.20;;;;;;5007623;28;20609;-88
2021/12/08 00:29:50;;;;;;;2.22;0.82;;;9.00;97.20;;;;;;4987800;28;20592;-89
2021/12/08 00:32:16;;;;;;;2.67;1.10;;;9.00;97.20;;;;;;5008351;28;20416;-89
2021/12/08 00:34:42;;;;;;;3.63;1.60;;;9.00;97.20;;;;;;5014871;28;20029;-90
2021/12/08 00:37:08;;;;;;;3.22;1.35;;;9.00;97.20;;;;;;4988231;28;20377;-86
2021/12/08 00:39:34;;;;;;;2.70;1.25;;;9.00;97.40;;;;;;5013099;28;20066;-89
2021/12/08 00:41:59;;;;;;;2.90;1.15;;;9.00;97.20;;;;;;5029561;28;20028;-89
2021/12/08 00:44:25;;;;;;;2.50;1.05;;;9.10;97.00;;;;;;5017265;28;20373;-89
2021/12/08 00:46:51;;;;;;;3.83;1.20;;;9.10;96.90;;;;;;4987588;28;20243;-90
2021/12/08 00:49:17;;;;;;;2.40;1.02;;;9.10;96.80;;;;;;5017937;28;20033;-89
2021/12/08 00:51:43;;;;;;;3.75;1.52;;;9.10;96.80;;;;;;5004981;28;20115;-90
2021/12/08 00:54:09;;;;;;;6.22;2.08;;;9.10;96.80;;;;;;5013218;28;20297;-90
2021/12/08 00:56:35;;;;;;;3.20;1.40;;;9.10;96.80;;;;;;5016751;28;20515;-89
2021/12/08 00:59:01;;;;;;;5.15;1.83;;;9.10;96.80;;;;;;5016495;28;20025;-88
2021/12/08 01:01:27;;;;;;;4.65;1.70;;;9.10;96.80;;;;;;4998682;28;20473;-89
2021/12/08 01:03:53;;;;;;;3.95;1.48;;;9.20;96.80;;;;;;5000014;28;20263;-89
2021/12/08 01:06:19;;;;;;;3.58;1.45;;;9.10;96.70;;;;;;5013696;28;20051;-89
2021/12/08 01:08:46;;;;;;;2.72;1.55;;;9.20;96.90;;;;;;4999275;28;20581;-88
2021/12/08 01:11:15;;;;;;;4.90;1.55;;;9.20;96.80;;;;;;5007923;28;20052;-87
2021/12/08 01:13:41;;;;;;;2.10;1.50;;;9.20;96.50;;;;;;5003332;28;20036;-90
2021/12/08 01:16:08;;;;;;;4.93;1.50;;;9.20;96.60;;;;;;5012485;28;20047;-90
2021/12/08 01:18:35;;;;;;;3.92;1.58;;;9.20;96.70;;;;;;4984958;28;20694;-89
2021/12/08 01:21:04;;;;;;;3.65;1.33;;;9.20;96.60;;;;;;5012978;28;20108;-88
2021/12/08 01:23:32;;;;;;;3.47;1.58;;;9.20;96.60;;;;;;5008873;28;20073;-90
2021/12/08 01:25:58;;;;;;;4.78;1.60;;;9.30;96.80;;;;;;5035415;28;20534;-90
2021/12/08 01:28:24;;;;;;;5.38;1.83;;;9.20;96.70;;;;;;5009288;28;20260;-88
2021/12/08 01:30:52;;;;;;;2.70;1.52;;;9.30;96.70;;;;;;5004534;28;20138;-88
2021/12/08 01:33:19;;;;;;;4.70;1.63;;;9.30;96.70;;;;;;5003384;28;20024;-90
2021/12/08 01:35:45;;;;;;;5.05;1.60;;;9.30;96.50;;;;;;4998077;28;20341;-90
2021/12/08 01:38:11;;;;;;;3.38;1.30;;;9.30;96.40;;;;;;5031741;28;20443;-89
2021/12/08 01:40:37;;;;;;;3.50;1.73;;;9.30;96.30;;;;;;5011019;28;20036;-90
2021/12/08 01:43:04;;;;;;;4.05;1.35;;;9.30;96.20;;;;;;4998564;28;20545;-89
2021/12/08 01:48:18;;;;;;;4.82;1.67;;;9.20;95.70;;;;;;5031769;28;20116;-90
2021/12/08 01:50:47;;;;;;;6.15;1.95;;;9.20;95.50;;;;;;5001834;28;20254;-89
2021/12/08 01:53:13;;;;;;;3.47;1.30;;;9.20;95.50;;;;;;5006917;28;20405;-89
2021/12/08 01:55:40;;;;;;;4.15;1.17;;;9.10;95.50;;;;;;5013778;28;20043;-88
2021/12/08 01:58:08;;;;;;;1.83;0.93;;;9.10;95.50;;;;;;5014752;28;20119;-89
2021/12/08 02:00:42;;;;;;;2.45;0.98;;;9.00;95.30;;;;;;5000849;28;20194;-89
2021/12/08 02:03:09;;;;;;;3.35;1.13;;;9.00;95.30;;;;;;5015406;28;20568;-89
2021/12/08 02:05:35;;;;;;;1.40;0.98;;;9.00;95.40;;;;;;5012720;28;20528;-90
2021/12/08 02:08:01;;;;;;;2.55;1.13;;;9.00;95.60;;;;;;5021672;28;20035;-89
2021/12/08 02:10:28;;;;;;;3.35;1.30;;;9.00;95.70;;;;;;5021547;28;20036;-89
2021/12/08 02:12:54;;;;;;;3.08;1.15;;;8.90;95.60;;;;;;5007796;28;20036;-87
2021/12/08 02:15:20;;;;;;;5.65;1.35;;;8.90;95.80;;;;;;5020903;28;20036;-88
2021/12/08 02:17:52;;;;;;;2.50;1.00;;;8.90;95.60;;;;;;5017024;28;20021;-88
2021/12/08 02:20:20;;;;;;;2.58;0.90;;;8.90;95.50;;;;;;5017355;28;20043;-89
2021/12/08 02:22:46;;;;;;;4.18;1.10;;;9.00;95.50;;;;;;5000093;28;20087;-87
2021/12/08 02:25:15;;;;;;;6.43;1.08;;;9.00;95.70;;;;;;5015248;28;20016;-89
2021/12/08 02:27:42;;;;;;;2.47;0.98;;;9.00;95.30;;;;;;5007813;28;20327;-89
2021/12/08 02:30:23;;;;;;;4.80;1.38;;;9.00;95.70;;;;;;5007680;28;20136;-89
2021/12/08 02:49:22;;;;;;;1.83;1.00;;;8.90;94.60;;;;;;5009274;28;20502;-89
2021/12/08 02:51:50;;;;;;;4.53;1.13;;;8.90;94.70;;;;;;5022119;28;20245;-90
2021/12/08 02:54:16;;;;;;;4.03;1.50;;;8.80;94.80;;;;;;5013776;28;20032;-88
2021/12/08 02:56:42;;;;;;;2.10;0.82;;;8.80;94.90;;;;;;5022151;28;20317;-89
2021/12/08 02:59:08;;;;;;;2.55;0.98;;;8.80;95.00;;;;;;5025799;28;20047;-89
2021/12/08 03:01:36;;;;;;;3.67;0.80;;;8.80;94.50;;;;;;5004774;28;20029;-89
2021/12/08 03:04:03;;;;;;;4.13;1.00;;;8.70;94.30;;;;;;5011224;28;20074;-88
2021/12/08 03:06:29;;;;;;;3.08;1.08;;;8.70;94.40;;;;;;4998881;28;20028;-88
2021/12/08 03:08:55;;;;;;;3.42;0.90;;;8.70;94.30;;;;;;5010311;28;20009;-88
2021/12/08 03:11:20;;;;;;;2.75;0.75;;;8.70;94.30;;;;;;5008492;28;20033;-87
2021/12/08 03:14:07;;;;;;;3.15;0.70;;;8.60;94.20;;;;;;5012488;28;21130;-90
2021/12/08 03:16:37;;;;;;;2.53;0.95;;;8.60;93.70;;;;;;5013151;28;20036;-88
2021/12/08 03:19:03;;;;;;;2.72;0.77;;;8.60;94.30;;;;;;5025538;28;20433;-88
2021/12/08 03:21:32;;;;;;;3.85;1.00;;;8.60;94.60;;;;;;5002381;28;20119;-89
2021/12/08 03:24:14;;;;;;;2.97;0.80;;;8.50;94.10;;;;;;5007711;28;20598;-88
2021/12/08 03:26:50;;;;;;;2.67;0.68;;;8.50;94.10;;;;;;5017076;28;20436;-89
2021/12/08 03:29:43;;;;;;;5.00;0.90;;;8.50;94.40;;;;;;5009109;28;20037;-89
2021/12/08 03:32:10;;;;;;;1.83;0.80;;;8.40;94.50;;;;;;5011309;28;20064;-88
2021/12/08 03:34:40;;;;;;;3.45;0.77;;;8.40;94.30;;;;;;5004823;28;20028;-87
2021/12/08 03:37:07;;;;;;;3.53;0.80;;;8.40;94.60;;;;;;5015918;28;20393;-88
2021/12/08 03:39:33;;;;;;;4.13;1.17;;;8.30;94.40;;;;;;5001995;28;20294;-88
2021/12/08 03:41:59;;;;;;;3.72;0.80;;;8.30;94.30;;;;;;5010106;28;20711;-88
2021/12/08 03:44:25;;;;;;;3.38;0.90;;;8.30;94.30;;;;;;5018432;28;20057;-88
2021/12/08 03:46:56;;;;;;;2.75;0.60;;;8.30;94.10;;;;;;4999880;28;20287;-88
2021/12/08 03:49:21;;;;;;;1.75;0.70;;;8.30;94.10;;;;;;5017158;28;20075;-88
2021/12/08 03:51:47;;;;;;;2.83;0.80;;;8.20;94.00;;;;;;5004172;28;20701;-88
2021/12/08 03:54:13;;;;;;;1.75;0.82;;;8.20;94.00;;;;;;5015847;28;20370;-89
2021/12/08 03:56:41;;;;;;;2.90;0.95;;;8.20;93.80;;;;;;4997759;28;20036;-88
2021/12/08 03:59:08;;;;;;;1.75;0.57;;;8.10;94.00;;;;;;5024068;28;20029;-89
2021/12/08 04:01:34;;;;;;;3.53;1.38;;;8.10;94.30;;;;;;5010197;28;20504;-89
2021/12/08 04:04:06;;;;;;;2.22;0.55;;;8.10;94.40;;;;;;5000050;28;20481;-88
2021/12/08 04:06:41;;;;;;;3.65;0.90;;;8.00;94.30;;;;;;5014898;28;20472;-88
2021/12/08 04:09:17;;;;;;;3.70;1.10;;;8.00;94.50;;;;;;5027821;28;20432;-88
2021/12/08 04:11:45;;;;;;;3.90;0.80;;;8.00;94.40;;;;;;4993032;28;20633;-88
2021/12/08 04:14:16;;;;;;;4.45;1.08;;;8.00;94.40;;;;;;5033586;28;20391;-88
2021/12/08 04:16:52;;;;;;;3.00;0.93;;;8.00;94.50;;;;;;5021862;28;20041;-88
2021/12/08 04:19:19;;;;;;;6.13;1.88;;;7.90;94.30;;;;;;4995871;28;20024;-88
2021/12/08 04:21:46;;;;;;;2.95;1.25;;;7.90;94.40;;;;;;5026362;28;20664;-88
2021/12/08 04:24:13;;;;;;;3.53;0.90;;;7.90;94.30;;;;;;5003728;28;20024;-87
2021/12/08 04:26:51;;;;;;;2.85;1.00;;;7.90;94.40;;;;;;4993043;28;20036;-88
2021/12/08 04:29:20;;;;;;;3.38;1.00;;;7.80;94.00;;;;;;5008458;28;20477;-88
2021/12/08 04:31:48;;;;;;;4.63;1.10;;;7.80;94.20;;;;;;5013170;28;20186;-88
2021/12/08 04:34:20;;;;;;;3.90;1.10;;;7.80;94.30;;;;;;5007541;28;20055;-88
2021/12/08 04:36:49;;;;;;;1.98;0.80;;;7.80;94.30;;;;;;5015911;28;20512;-88
2021/12/08 04:39:22;;;;;;;1.75;0.63;;;7.70;94.30;;;;;;5008824;28;20024;-90
2021/12/08 04:41:54;;;;;;;;;;;7.70;94.30;;;;;;5005003;28;20555;-88
2021/12/08 04:44:41;;;;;;;4.18;0.93;;;7.70;93.70;;;;;;5037830;28;19917;-89
2021/12/08 04:47:29;;;;;;;8.30;1.35;;;7.70;94.40;;;;;;5034286;28;20028;-88
2021/12/08 04:52:57;;;;;;;3.10;0.80;;;7.60;94.40;;;;;;5015609;28;20064;-88
2021/12/08 05:01:16;;;;;;;3.90;1.33;;;7.50;94.40;;;;;;5028629;28;20364;-89
2021/12/08 05:09:09;;;;;;;5.35;1.60;;;7.50;94.70;;;;;;5022682;28;20025;-89
2021/12/08 05:11:40;;;;;;;3.10;1.58;;;7.40;94.80;;;;;;5001870;28;20590;-88
2021/12/08 05:14:35;;;;;;;3.72;1.02;;;7.40;95.10;;;;;;5015065;28;20012;-88
2021/12/08 05:17:11;;;;;;;2.75;1.05;;;7.40;94.60;;;;;;5010348;28;20036;-88
2021/12/08 05:19:44;;;;;;;5.03;1.15;;;7.40;94.70;;;;;;5012634;28;20507;-88
2021/12/08 05:22:20;;;;;;;3.80;1.10;;;7.40;95.00;;;;;;5011511;28;20047;-88
2021/12/08 05:24:51;;;;;;;2.33;0.80;;;7.40;94.70;;;;;;5024084;28;20290;-88
2021/12/08 05:27:30;;;;;;;2.78;0.98;;;7.50;94.90;;;;;;5002744;28;20592;-88
2021/12/08 05:30:01;;;;;;;3.00;0.82;;;7.40;94.60;;;;;;5023666;28;20254;-87
2021/12/08 05:32:27;;;;;;;4.20;1.00;;;7.40;94.60;;;;;;5006371;28;20098;-87
2021/12/08 05:34:53;;;;;;;3.63;1.00;;;7.50;94.80;;;;;;5003484;28;20509;-88
2021/12/08 05:37:23;;;;;;;1.77;0.70;;;7.40;94.70;;;;;;5013690;28;20024;-88
2021/12/08 05:39:48;;;;;;;6.90;1.13;;;7.40;94.50;;;;;;5020010;28;20120;-88
2021/12/08 05:42:22;;;;;;;4.97;1.13;;;7.40;94.50;;;;;;5012360;28;20589;-88
2021/12/08 05:44:48;;;;;;;3.08;1.10;;;7.40;94.50;;;;;;5018543;28;20033;-88
2021/12/08 05:47:17;;;;;;;3.85;1.27;;;7.40;94.50;;;;;;5009955;28;20056;-87
2021/12/08 05:49:43;;;;;;;2.05;0.70;;;7.40;94.50;;;;;;5011925;28;20839;-88
2021/12/08 05:52:09;;;;;;;2.50;0.70;;;7.30;94.70;;;;;;5030452;28;20033;-87
2021/12/08 05:54:39;;;;;;;4.13;0.73;;;7.30;94.70;;;;;;5003933;28;20571;-87
2021/12/08 05:57:13;;;;;;;3.42;0.82;;;7.30;94.50;;;;;;5037766;28;20127;-87
2021/12/08 05:59:40;;;;;;;3.38;0.90;;;7.30;94.10;;;;;;4991985;28;20120;-86
2021/12/08 06:02:08;;;;;;;3.63;1.38;;;7.30;94.50;;;;;;4997553;28;20025;-87
2021/12/08 06:04:34;;;;;;;2.13;0.68;;;7.30;94.30;;;;;;5001129;28;20279;-88
2021/12/08 06:07:01;;;;;;;2.30;0.82;;;7.30;94.40;;;;;;5001708;28;20626;-88
2021/12/08 06:09:29;;;;;;;2.33;0.98;;;7.30;94.40;;;;;;5010596;28;20856;-88
2021/12/08 06:11:55;;;;;;;4.40;0.75;;;7.20;94.40;;;;;;5011450;28;20150;-88
2021/12/08 06:14:25;;;;;;;3.88;0.90;;;7.20;94.40;;;;;;5001862;28;20032;-87
2021/12/08 06:16:52;;;;;;;1.70;0.68;;;7.20;94.30;;;;;;5020348;28;20408;-88
2021/12/08 06:19:22;;;;;;;2.42;0.95;;;7.20;94.30;;;;;;5002469;28;20035;-87
2021/12/08 06:21:50;;;;;;;2.00;0.88;;;7.20;94.40;;;;;;5011401;28;20032;-87
2021/12/08 06:24:19;;;;;;;2.38;0.73;;;7.20;94.30;;;;;;5023940;28;20025;-88
2021/12/08 06:26:45;;;;;;;1.60;0.90;;;7.20;94.20;;;;;;5008919;28;20099;-88
2021/12/08 06:29:15;;;;;;;4.25;1.20;;;7.10;94.20;;;;;;5010295;28;20025;-88
2021/12/08 06:31:42;;;;;;;2.45;0.85;;;7.10;94.10;;;;;;5041689;28;20619;-87
2021/12/08 06:34:08;;;;;;;3.85;1.00;;;7.10;94.20;;;;;;5017638;28;20075;-88
2021/12/08 06:36:40;;;;;;;3.75;0.85;;;7.10;94.60;;;;;;5018824;28;20024;-87
2021/12/08 06:39:14;;;;;;;3.92;0.90;;;7.10;94.50;;;;;;5006879;28;20529;-88
2021/12/08 06:41:43;;;;;;;2.47;0.90;;;7.10;94.50;;;;;;5004681;28;20243;-88
2021/12/08 06:44:14;;;;;;;3.83;0.90;;;7.10;94.20;;;;;;5026963;28;20036;-87
2021/12/08 06:46:42;;;;;;;6.10;1.00;;;7.10;94.30;;;;;;5011821;28;20325;-89
2021/12/08 06:49:10;;;;;;;1.90;0.90;;;7.10;94.50;;;;;;5013020;28;20025;-85
2021/12/08 06:51:49;;;;;;;4.43;1.50;;;7.10;94.70;;;;;;5022584;28;20509;-88
2021/12/08 06:54:25;;;;;;;3.28;0.93;;;7.10;94.50;;;;;;5010391;28;21512;-88
2021/12/08 06:56:56;;;;;;;5.07;1.10;;;7.10;94.80;;;;;;5035393;28;20036;-87
2021/12/08 06:59:27;;;;;;;3.55;1.00;;;7.20;95.20;;;;;;5038237;28;20112;-87
2021/12/08 07:02:05;;;;;;;3.08;1.00;;;7.20;95.30;;;;;;5005510;28;20028;-88
2021/12/08 07:05:29;;;;;;;5.63;1.10;;;7.30;95.20;;;;;;5010360;28;20224;-87
2021/12/08 07:07:30;;;;;;;4.47;0.85;;;7.30;95.10;;;;;;5006685;28;20315;-89
2021/12/08 07:10:21;;;;;;;2.85;1.00;;;7.40;95.50;;;;;;5031280;28;20494;-88
2021/12/08 07:12:53;;;;;;;5.75;1.10;;;7.50;94.80;;;;;;5039862;28;20020;-87
2021/12/08 07:15:26;;;;;;;2.70;1.05;;;7.50;95.50;;;;;;5007741;28;20044;-88
2021/12/08 07:17:59;;;;;;;4.77;1.00;;;7.60;95.50;;;;;;5000676;28;20090;-87
2021/12/08 07:20:43;;;;;;;3.42;1.00;;;7.60;94.80;;;;;;5045941;28;20513;-88
2021/12/08 07:23:28;;;;;;;2.70;0.90;;;7.70;94.90;;;;;;5031652;28;20087;-89
2021/12/08 07:25:56;;;;;;;4.22;1.17;;;7.70;94.90;;;;;;5019780;28;20039;-87
2021/12/08 07:28:25;;;;;;;1.65;0.80;;;7.70;94.70;;;;;;5010760;28;20032;-87
2021/12/08 07:30:56;;;;;;;5.50;1.38;;;7.70;94.90;;;;;;5019527;28;20069;-86
2021/12/08 07:33:22;;;;;;;4.38;1.23;;;7.70;94.70;;;;;;4994670;28;20025;-89
2021/12/08 07:35:53;;;;;;;2.75;0.80;;;7.70;94.80;;;;;;5019691;28;20351;-87
2021/12/08 07:38:21;;;;;;;3.50;1.20;;;7.70;94.70;;;;;;5004852;28;20440;-89
2021/12/08 07:41:10;;;;;;;2.55;1.10;;;7.60;94.50;;;;;;5011480;28;20045;-88
2021/12/08 07:43:41;;;;;;;3.10;1.13;;;7.60;93.60;;;;;;5006559;28;20020;-87
2021/12/08 07:46:15;;;;;;;3.63;1.20;;;7.60;94.20;;;;;;5006878;28;20114;-87
2021/12/08 07:48:49;;;;;;;3.10;0.90;;;7.60;94.40;;;;;;5001581;28;20195;-88
2021/12/08 07:51:19;;;;;;;3.22;1.25;;;7.60;94.40;;;;;;5011318;28;20025;-87
2021/12/08 07:53:46;;;;;;;2.33;0.80;;;7.60;94.80;;;;;;5017675;28;20104;-88
2021/12/08 07:56:15;;;;;;;4.65;1.10;;;7.60;94.80;;;;;;5008241;28;20032;-88
2021/12/08 07:58:43;;;;;;;2.88;0.98;;;7.60;94.90;;;;;;4987861;28;21845;-89
2021/12/08 08:01:16;;;;;;;3.63;1.50;;;7.60;94.80;;;;;;5007060;28;20553;-88
2021/12/08 08:03:43;;;;;;;2.30;1.20;;;7.60;94.60;;;;;;4995990;28;20024;-87
2021/12/08 08:06:14;;;;;;;1.75;0.90;;;7.60;94.90;;;;;;5028085;28;20071;-89
2021/12/08 08:08:40;;;;;;;2.08;0.88;;;7.60;94.90;;;;;;5023379;28;20032;-88
2021/12/08 08:11:32;;;;;;;2.10;0.95;;;7.60;95.10;;;;;;5017048;28;20052;-88
2021/12/08 08:14:00;;;;;;;4.72;1.00;;;7.60;95.00;;;;;;5025051;28;20037;-87
2021/12/08 08:16:31;;;;;;;2.88;1.10;;;7.60;95.40;;;;;;4989973;28;20064;-88
2021/12/08 08:19:06;;;;;;;4.57;1.10;;;7.60;95.10;;;;;;5010031;28;20593;-88
2021/12/08 08:21:38;;;;;;;3.38;0.90;;;7.60;95.10;;;;;;4996938;28;20036;-88
2021/12/08 08:24:05;;;;;;;5.50;1.10;;;7.60;94.90;;;;;;5032606;28;20277;-87
2021/12/08 08:26:32;;;;;;;3.00;1.13;;;7.60;95.00;;;;;;5021881;28;20024;-87
2021/12/08 08:28:59;;;;;;;1.70;0.80;;;7.60;95.10;;;;;;5022266;28;20078;-87
2021/12/08 08:31:33;;;;;;;3.20;1.10;;;7.60;94.80;;;;;;5017220;28;20519;-87
2021/12/08 08:34:00;;;;;;;3.35;0.80;;;7.60;94.70;;;;;;5047414;28;20033;-88
2021/12/08 08:36:29;;;;;;;2.85;0.90;;;7.60;94.80;;;;;;4990539;28;20029;-88
2021/12/08 08:38:59;;;;;;;4.28;1.45;;;7.60;94.80;;;;;;5021857;28;20085;-87
2021/12/08 08:41:33;;;;;;;3.15;1.15;;;7.70;95.00;;;;;;5012835;28;20040;-87
2021/12/08 08:44:03;;;;;;;5.57;1.42;;;7.70;95.40;;;;;;5010106;28;20497;-88
2021/12/08 08:46:34;;;;;;;3.45;1.38;;;7.70;95.50;;;;;;5001210;28;20335;-87
2021/12/08 08:49:09;;;;;;;2.75;0.93;;;7.80;95.30;;;;;;5030782;28;20038;-88
2021/12/08 08:51:43;;;;;;;2.13;0.80;;;7.80;94.80;;;;;;4993656;28;20390;-87
2021/12/08 08:54:11;;;;;;;;;;;7.80;95.80;;;;;;5014027;28;20063;-87
2021/12/08 08:56:45;;;;;;;2.53;1.05;;;7.90;93.80;;;;;;5019713;28;20211;-88
2021/12/08 08:59:28;;;;;;;2.92;0.90;;;7.90;95.30;;;;;;5004148;28;20115;-89
2021/12/08 09:01:55;;;;;;;4.18;1.30;;;7.90;94.70;;;;;;4995933;28;20033;-86
2021/12/08 09:04:33;;;;;;;3.38;1.20;;;8.00;95.70;;;;;;5015988;28;20018;-88
2021/12/08 09:07:06;;;;;;;5.40;1.20;;;8.00;95.30;;;;;;4999243;28;20025;-89
2021/12/08 09:09:38;;;;;;;2.83;1.08;;;8.10;95.80;;;;;;5011118;28;20313;-88
2021/12/08 09:12:14;;;;;;;2.97;0.95;;;8.10;95.60;;;;;;5016047;28;20135;-89
2021/12/08 09:15:07;;;;;;;3.50;1.30;;;8.20;95.80;;;;;;5014185;28;20211;-87
2021/12/08 09:17:38;;;;;;;2.05;1.05;;;8.20;95.20;;;;;;4992357;28;20314;-87
2021/12/08 09:20:16;;;;;;;3.20;1.15;;;8.30;95.70;;;;;;5007065;28;20032;-87
2021/12/08 09:23:00;;;;;;;2.88;0.90;;;8.30;95.10;;;;;;5017755;28;20044;-87
2021/12/08 09:25:27;;;;;;;2.67;1.10;;;8.30;95.10;;;;;;5002320;28;20075;-87
2021/12/08 09:27:56;;;;;;;2.08;0.90;;;8.30;95.60;;;;;;5012026;28;20093;-88
2021/12/08 09:30:24;;;;;;;3.42;0.90;;;8.30;95.70;;;;;;5008536;28;20435;-88
2021/12/08 09:33:00;;;;;;;2.38;1.00;;;8.40;96.10;;;;;;4996762;28;20031;-88
2021/12/08 09:35:37;;;;;;;2.58;1.30;;;8.50;96.00;;;;;;5006197;28;20456;-87
2021/12/08 09:38:17;;;;;;;3.95;1.00;;;8.60;96.80;;;;;;5045574;28;20380;-87
2021/12/08 09:40:54;;;;;;;2.83;1.02;;;8.70;97.10;;;;;;5020673;28;20035;-86
2021/12/08 09:43:39;;;;;;;4.13;1.08;;;8.90;96.30;;;;;;5008106;28;20020;-88
2021/12/08 09:46:36;;;;;;;2.60;1.00;;;9.20;97.50;;;;;;5024637;28;20029;-87
2021/12/08 09:49:05;;;;;;;5.90;2.30;;;9.50;96.80;;;;;;5012150;28;20560;-86
2021/12/08 09:51:33;;;;;;;4.65;0.90;;;9.90;97.50;;;;;;5034028;28;20746;-85
2021/12/08 09:53:59;;;;;;;2.05;0.70;;;10.20;98.50;;;;;;5012812;28;20106;-88
2021/12/08 09:56:26;;;;;;;4.40;0.73;;;10.50;97.70;;;;;;5005529;28;20044;-87
2021/12/08 09:58:53;;;;;;;3.67;0.95;;;10.80;97.50;;;;;;5034157;28;20070;-87
2021/12/08 10:01:21;;;;;;;3.08;1.00;;;11.10;97.70;;;;;;5032999;28;20044;-87
2021/12/08 10:03:49;;;;;;;2.42;1.10;;;11.40;97.20;;;;;;5027465;28;20047;-89
2021/12/08 10:06:17;;;;;;;3.03;0.80;;;11.50;95.90;;;;;;5009417;28;20028;-85
2021/12/08 10:08:44;;;;;;;3.88;0.82;;;11.70;95.70;;;;;;5000445;28;20122;-87
2021/12/08 10:11:11;;;;;;;4.13;1.48;;;11.70;94.40;;;;;;5011944;28;20031;-87
2021/12/08 10:13:37;;;;;;;2.97;0.82;;;11.70;94.00;;;;;;5021989;28;20508;-88
2021/12/08 10:16:03;;;;;;;4.60;1.08;;;11.70;93.80;;;;;;5011685;28;20153;-87
2021/12/08 10:18:30;;;;;;;1.48;0.70;;;11.60;94.20;;;;;;5020905;28;20017;-87
2021/12/08 10:20:56;;;;;;;3.25;0.77;;;11.50;93.20;;;;;;5015995;28;20324;-87
2021/12/08 10:23:30;;;;;;;2.28;0.75;;;11.40;93.00;;;;;;5040627;28;20022;-87
2021/12/08 10:25:57;;;;;;;;;;;11.30;92.30;;;;;;4993331;28;20020;-87
2021/12/08 10:28:33;;;;;;;4.07;1.17;;;11.20;90.20;;;;;;5032890;28;19939;-86
2021/12/08 10:31:07;;;;;;;3.80;1.15;;;11.10;91.70;;;;;;5012850;28;20044;-88
2021/12/08 10:34:22;;;;;;;2.67;1.10;;;10.90;92.00;;;;;;4994201;28;20052;-87
2021/12/08 10:36:46;;;;;;;2.03;0.98;;;10.90;92.50;;;;;;5027032;28;20149;-86
2021/12/08 10:39:14;;;;;;;1.30;0.63;;;11.00;94.80;;;;;;5015396;28;20112;-87
2021/12/08 10:41:51;;;;;;;2.28;1.00;;;11.20;96.60;;;;;;5021436;28;20654;-86
2021/12/08 10:44:24;;;;;;;1.90;1.00;;;11.50;95.40;;;;;;5008556;28;20107;-87
2021/12/08 10:46:56;;;;;;;3.78;1.13;;;11.80;94.60;;;;;;5010951;28;20048;-86
2021/12/08 10:54:25;;;;;;;1.98;0.80;;;12.10;96.40;;;;;;5019120;28;20521;-87
2021/12/08 10:54:57;;;;;;;3.03;1.00;;;12.70;97.10;;;;;;5039602;28;20072;-88
2021/12/08 10:57:34;;;;;;;2.97;1.00;;;13.00;96.70;;;;;;5004032;28;20131;-87
2021/12/08 11:00:24;;;;;;;1.92;0.90;;;13.20;95.90;;;;;;5011516;28;20029;-87
2021/12/08 11:02:57;;;;;;;1.73;0.80;;;13.40;93.00;;;;;;5013021;28;20380;-88
2021/12/08 11:05:25;;;;;;;3.95;1.02;;;13.70;95.30;;;;;;5004417;28;20536;-88
2021/12/08 11:08:17;;;;;;;1.88;0.90;;;13.80;94.70;;;;;;5015888;28;20032;-88
2021/12/08 11:10:54;;;;;;;1.75;0.90;;;14.00;93.90;;;;;;5005395;28;20040;-86
2021/12/08 11:13:28;;;;;;;2.67;0.80;;;14.10;93.40;;;;;;5013574;28;20025;-85
2021/12/08 11:16:14;;;;;;;3.38;1.00;;;14.20;91.50;;;;;;5026414;28;20037;-86
2021/12/08 11:18:43;;;;;;;3.10;0.90;;;14.20;90.80;;;;;;5012303;28;20329;-86
2021/12/08 11:21:24;;;;;;;2.75;0.90;;;14.20;92.50;;;;;;5025717;28;20094;-87
2021/12/08 11:23:52;;;;;;;3.70;1.50;;;14.30;91.60;;;;;;5010987;28;20488;-88
2021/12/08 11:26:31;;;;;;;2.95;0.90;;;14.20;92.20;;;;;;4996338;28;20441;-87
2021/12/08 11:29:10;;;;;;;4.63;1.45;;;14.20;91.30;;;;;;5042166;28;20028;-85
2021/12/08 11:31:45;;;;;;;2.53;1.00;;;14.10;87.80;;;;;;5015239;28;20024;-87
2021/12/08 11:34:30;;;;;;;2.60;1.30;;;13.90;87.70;;;;;;5011746;28;20119;-86
2021/12/08 11:37:17;;;;;;;1.95;0.80;;;13.70;89.10;;;;;;5018729;28;20075;-86
2021/12/08 11:39:47;;;;;;;3.00;1.08;;;13.70;85.60;;;;;;5004422;28;20120;-87
2021/12/08 11:42:38;;;;;;;3.38;0.93;;;13.70;92.40;;;;;;4995977;28;20063;-86
2021/12/08 11:45:17;;;;;;;2.70;0.90;;;13.80;92.60;;;;;;5030787;28;20029;-87
2021/12/08 11:47:44;;;;;;;3.60;1.10;;;13.90;91.20;;;;;;5003438;28;20067;-87
2021/12/08 11:50:14;;;;;;;3.00;0.95;;;14.00;92.00;;;;;;5012166;28;20377;-87
2021/12/08 11:52:40;;;;;;;4.25;1.77;;;14.00;92.40;;;;;;4987450;28;20036;-87
2021/12/08 11:55:15;;;;;;;3.30;1.27;;;14.00;91.00;;;;;;5011334;28;20232;-86
2021/12/08 11:57:47;;;;;;;4.25;1.70;;;14.10;91.50;;;;;;5000306;28;20035;-86
2021/12/08 12:00:22;;;;;;;3.30;0.80;;;14.00;85.00;;;;;;5010643;28;20036;-86
2021/12/08 12:02:59;;;;;;;3.65;0.73;;;13.90;91.00;;;;;;5007992;28;20036;-87
2021/12/08 12:05:34;;;;;;;1.92;0.80;;;13.80;89.50;;;;;;5023553;28;20029;-86
2021/12/08 12:08:02;;;;;;;2.50;0.90;;;13.60;85.50;;;;;;5010137;28;20188;-86
2021/12/08 12:10:32;;;;;;;1.45;0.80;;;13.50;89.30;;;;;;5016753;28;20127;-86
2021/12/08 12:12:58;;;;;;;1.75;0.95;;;13.30;89.40;;;;;;5010787;28;20929;-86
2021/12/08 12:15:25;;;;;;;2.00;1.30;;;13.10;88.60;;;;;;5026561;28;20500;-87
2021/12/08 12:17:51;;;;;;;2.85;0.80;;;12.90;89.60;;;;;;5013953;28;20025;-87
2021/12/08 12:20:38;;;;;;;5.32;1.27;;;12.70;89.50;;;;;;5028463;28;20325;-87
2021/12/08 12:23:29;;;;;;;2.15;1.00;;;12.60;88.60;;;;;;5007495;28;20361;-85
2021/12/08 12:26:03;;;;;;;2.30;0.85;;;12.50;88.10;;;;;;5005029;28;20029;-86
2021/12/08 12:28:50;;;;;;;1.63;0.80;;;12.40;87.80;;;;;;5029283;28;20505;-86
2021/12/08 12:31:40;;;;;;;2.00;1.27;;;12.30;88.30;;;;;;4994212;28;20501;-84
2021/12/08 12:34:26;;;;;;;1.40;0.90;;;12.30;88.80;;;;;;4992109;28;20021;-86
2021/12/08 12:36:53;;;;;;;2.50;0.95;;;12.20;86.10;;;;;;5000235;28;20044;-86
2021/12/08 12:39:25;;;;;;;2.97;1.00;;;12.10;89.80;;;;;;4995333;28;20091;-86
2021/12/08 12:42:15;;;;;;;1.60;0.88;;;12.00;90.30;;;;;;5007851;28;20420;-86
2021/12/08 12:45:09;;;;;;;2.30;1.02;;;12.00;89.70;;;;;;4972136;28;21189;-85
2021/12/08 12:47:35;;;;;;;3.40;1.67;;;11.90;84.80;;;;;;4992308;28;20267;-86
2021/12/08 12:50:03;;;;;;;2.33;1.50;;;12.00;92.40;;;;;;4985672;28;20029;-86
2021/12/08 12:52:40;;;;;;;2.35;1.30;;;12.00;92.60;;;;;;4972447;28;20037;-86
2021/12/08 12:55:15;;;;;;;2.38;1.50;;;12.10;91.00;;;;;;4990933;28;20502;-86
2021/12/08 12:57:59;;;;;;;2.13;1.58;;;12.10;91.60;;;;;;4987522;28;20093;-86
2021/12/08 13:00:35;;;;;;;2.50;1.00;;;12.00;90.20;;;;;;4994224;28;20512;-86
2021/12/08 13:03:01;;;;;;;3.05;1.70;;;11.90;90.50;;;;;;4989572;28;20029;-87
2021/12/08 13:05:52;;;;;;;2.88;1.60;;;11.80;90.50;;;;;;4985943;28;20029;-85
2021/12/08 13:08:31;;;;;;;2.70;1.27;;;11.60;80.10;;;;;;4990301;28;22828;-85
2021/12/08 13:11:00;;;;;;;4.40;1.48;;;11.40;87.70;;;;;;4991992;28;20420;-86
2021/12/08 13:13:26;;;;;;;4.68;1.85;;;11.20;90.20;;;;;;4999399;28;20063;-86
2021/12/08 13:15:52;;;;;;;2.40;1.40;;;11.10;90.00;;;;;;4986871;28;20128;-86
2021/12/08 13:18:20;;;;;;;3.35;1.73;;;10.90;90.60;;;;;;4999358;28;20238;-86
2021/12/08 13:20:58;;;;;;;2.80;1.05;;;10.80;90.60;;;;;;4987712;28;20409;-86
2021/12/08 13:23:28;;;;;;;1.73;0.93;;;10.70;91.90;;;;;;5006568;28;20035;-86
2021/12/08 13:26:01;;;;;;;2.78;1.27;;;10.70;92.00;;;;;;4992481;28;20021;-86
2021/12/08 13:28:37;;;;;;;2.83;1.10;;;10.60;93.10;;;;;;5008765;28;20026;-86
2021/12/08 13:34:02;;;;;;;3.58;1.40;;;10.60;91.90;;;;;;5036446;28;20028;-86
2021/12/08 13:36:33;;;;;;;2.40;1.20;;;10.60;92.60;;;;;;4998669;28;20099;-86
2021/12/08 13:38:58;;;;;;;2.83;1.60;;;10.60;93.90;;;;;;5002234;28;20032;-85
2021/12/08 13:41:33;;;;;;;2.95;1.33;;;10.80;94.50;;;;;;4998401;28;20098;-86
2021/12/08 13:44:02;;;;;;;3.17;1.35;;;10.90;93.80;;;;;;5040364;28;20123;-86
2021/12/08 13:46:41;;;;;;;3.50;1.20;;;11.00;95.30;;;;;;4991588;28;20107;-86
2021/12/08 13:49:10;;;;;;;4.88;1.30;;;11.20;94.50;;;;;;5025720;28;20223;-86
2021/12/08 13:51:36;;;;;;;4.03;1.50;;;11.20;93.60;;;;;;5016721;28;20047;-85
2021/12/08 13:54:31;;;;;;;1.38;1.13;;;11.20;93.00;;;;;;5018492;28;20032;-87
2021/12/08 13:56:59;;;;;;;4.80;1.70;;;11.20;88.80;;;;;;4988027;28;20044;-84
2021/12/08 14:00:02;;;;;;;2.67;1.27;;;11.10;92.10;;;;;;5031545;28;20039;-87